sensor_id;sensor_type;location;lat;lon;timestamp;P1;durP1;ratioP1;P2;durP2;ratioP2
14994;SDS011;7593;49.006;8.372;2022-12-07T00:00:49;13.40;;;10.03;;
14994;SDS011;7593;49.006;8.372;2022-12-07T00:03:16;11.67;;;9.90;;
14994;SDS011;7593;49.006;8.372;2022-12-07T00:05:42;15.53;;;12.10;;
14994;SDS011;7593;49.006;8.372;2022-12-07T00:08:10;15.23;;;11.77;;
14994;SDS011;7593;49.006;8.372;2022-12-07T00:10:37;13.27;;;11.07;;
14994;SDS011;7593;49.006;8.372;2022-12-07T00:13:04;15.37;;;11.10;;
14994;SDS011;7593;49.006;8.372;2022-12-07T00:15:31;17.57;;;12.40;;
14994;SDS011;7593;49.006;8.372;2022-12-07T00:17:59;18.00;;;12.57;;
14994;SDS011;7593;49.006;8.372;2022-12-07T00:20:26;16.33;;;11.93;;
14994;SDS011;7593;49.006;8.372;2022-12-07T00:22:53;19.83;;;13.30;;
14994;SDS011;7593;49.006;8.372;2022-12-07T00:25:21;17.00;;;12.37;;
14994;SDS011;7593;49.006;8.372;2022-12-07T00:27:48;14.50;;;11.03;;
14994;SDS011;7593;49.006;8.372;2022-12-07T00:30:15;27.30;;;16.70;;
14994;SDS011;7593;49.006;8.372;2022-12-07T00:32:42;16.37;;;12.20;;
14994;SDS011;7593;49.006;8.372;2022-12-07T00:35:09;26.50;;;17.23;;
14994;SDS011;7593;49.006;8.372;2022-12-07T00:37:35;15.57;;;11.93;;
14994;SDS011;7593;49.006;8.372;2022-12-07T00:40:02;27.87;;;17.67;;
14994;SDS011;7593;49.006;8.372;2022-12-07T00:42:31;16.30;;;12.17;;
14994;SDS011;7593;49.006;8.372;2022-12-07T00:44:59;14.17;;;11.47;;
14994;SDS011;7593;49.006;8.372;2022-12-07T00:47:25;15.00;;;11.47;;
14994;SDS011;7593;49.006;8.372;2022-12-07T00:49:52;17.77;;;11.70;;
14994;SDS011;7593;49.006;8.372;2022-12-07T00:52:19;16.87;;;11.63;;
14994;SDS011;7593;49.006;8.372;2022-12-07T00:54:46;14.93;;;12.03;;
14994;SDS011;7593;49.006;8.372;2022-12-07T00:57:12;18.17;;;12.70;;
14994;SDS011;7593;49.006;8.372;2022-12-07T00:59:40;14.90;;;12.13;;
14994;SDS011;7593;49.006;8.372;2022-12-07T01:02:07;14.73;;;12.00;;
14994;SDS011;7593;49.006;8.372;2022-12-07T01:04:34;15.70;;;11.87;;
14994;SDS011;7593;49.006;8.372;2022-12-07T01:07:01;13.17;;;11.60;;
14994;SDS011;7593;49.006;8.372;2022-12-07T01:09:28;13.60;;;11.87;;
14994;SDS011;7593;49.006;8.372;2022-12-07T01:11:54;13.00;;;11.50;;
14994;SDS011;7593;49.006;8.372;2022-12-07T01:14:21;16.73;;;12.10;;
14994;SDS011;7593;49.006;8.372;2022-12-07T01:16:49;17.00;;;12.13;;
14994;SDS011;7593;49.006;8.372;2022-12-07T01:19:16;17.87;;;12.13;;
14994;SDS011;7593;49.006;8.372;2022-12-07T01:21:43;18.23;;;11.90;;
14994;SDS011;7593;49.006;8.372;2022-12-07T01:24:10;15.13;;;11.60;;
14994;SDS011;7593;49.006;8.372;2022-12-07T01:26:37;13.43;;;11.33;;
14994;SDS011;7593;49.006;8.372;2022-12-07T01:29:04;16.00;;;12.47;;
14994;SDS011;7593;49.006;8.372;2022-12-07T01:31:31;16.40;;;12.20;;
14994;SDS011;7593;49.006;8.372;2022-12-07T01:34:00;14.37;;;12.77;;
14994;SDS011;7593;49.006;8.372;2022-12-07T01:36:27;13.33;;;11.77;;
14994;SDS011;7593;49.006;8.372;2022-12-07T01:38:56;13.47;;;12.03;;
14994;SDS011;7593;49.006;8.372;2022-12-07T01:41:24;15.67;;;12.47;;
14994;SDS011;7593;49.006;8.372;2022-12-07T01:44:09;13.83;;;12.30;;
14994;SDS011;7593;49.006;8.372;2022-12-07T01:46:39;15.33;;;12.40;;
14994;SDS011;7593;49.006;8.372;2022-12-07T01:49:09;17.77;;;13.00;;
14994;SDS011;7593;49.006;8.372;2022-12-07T01:51:40;16.90;;;13.43;;
14994;SDS011;7593;49.006;8.372;2022-12-07T01:54:09;16.70;;;12.90;;
14994;SDS011;7593;49.006;8.372;2022-12-07T01:56:38;15.00;;;12.77;;
14994;SDS011;7593;49.006;8.372;2022-12-07T01:59:07;16.80;;;12.57;;
14994;SDS011;7593;49.006;8.372;2022-12-07T02:01:34;15.70;;;12.97;;
14994;SDS011;7593;49.006;8.372;2022-12-07T02:04:01;13.83;;;12.17;;
14994;SDS011;7593;49.006;8.372;2022-12-07T02:06:30;14.63;;;12.27;;
14994;SDS011;7593;49.006;8.372;2022-12-07T02:08:57;16.50;;;12.93;;
14994;SDS011;7593;49.006;8.372;2022-12-07T02:11:23;16.63;;;12.80;;
14994;SDS011;7593;49.006;8.372;2022-12-07T02:13:50;16.60;;;13.30;;
14994;SDS011;7593;49.006;8.372;2022-12-07T02:16:21;17.40;;;13.13;;
14994;SDS011;7593;49.006;8.372;2022-12-07T02:19:14;16.53;;;13.20;;
14994;SDS011;7593;49.006;8.372;2022-12-07T02:22:13;18.10;;;13.23;;
14994;SDS011;7593;49.006;8.372;2022-12-07T02:24:51;17.57;;;13.57;;
14994;SDS011;7593;49.006;8.372;2022-12-07T02:30:09;15.70;;;12.87;;
14994;SDS011;7593;49.006;8.372;2022-12-07T02:32:42;15.43;;;12.47;;
14994;SDS011;7593;49.006;8.372;2022-12-07T02:35:16;17.07;;;13.40;;
14994;SDS011;7593;49.006;8.372;2022-12-07T02:37:48;16.80;;;12.80;;
14994;SDS011;7593;49.006;8.372;2022-12-07T02:40:22;16.00;;;13.17;;
14994;SDS011;7593;49.006;8.372;2022-12-07T02:42:55;17.77;;;13.47;;
14994;SDS011;7593;49.006;8.372;2022-12-07T02:45:28;15.93;;;12.77;;
14994;SDS011;7593;49.006;8.372;2022-12-07T02:47:58;15.93;;;12.03;;
14994;SDS011;7593;49.006;8.372;2022-12-07T02:50:26;18.40;;;14.23;;
14994;SDS011;7593;49.006;8.372;2022-12-07T02:52:54;18.87;;;14.17;;
14994;SDS011;7593;49.006;8.372;2022-12-07T02:55:22;17.10;;;14.07;;
14994;SDS011;7593;49.006;8.372;2022-12-07T02:58:03;18.03;;;13.97;;
14994;SDS011;7593;49.006;8.372;2022-12-07T03:00:50;18.43;;;14.27;;
14994;SDS011;7593;49.006;8.372;2022-12-07T03:03:22;19.37;;;13.73;;
14994;SDS011;7593;49.006;8.372;2022-12-07T03:05:54;16.57;;;13.50;;
14994;SDS011;7593;49.006;8.372;2022-12-07T03:08:37;16.70;;;13.63;;
14994;SDS011;7593;49.006;8.372;2022-12-07T03:11:10;19.10;;;14.10;;
14994;SDS011;7593;49.006;8.372;2022-12-07T03:13:41;18.37;;;14.33;;
14994;SDS011;7593;49.006;8.372;2022-12-07T03:16:15;19.13;;;13.90;;
14994;SDS011;7593;49.006;8.372;2022-12-07T03:18:45;16.27;;;12.93;;
14994;SDS011;7593;49.006;8.372;2022-12-07T03:21:16;18.17;;;13.37;;
14994;SDS011;7593;49.006;8.372;2022-12-07T03:23:53;15.90;;;12.47;;
14994;SDS011;7593;49.006;8.372;2022-12-07T03:26:24;19.70;;;14.87;;
14994;SDS011;7593;49.006;8.372;2022-12-07T03:28:58;18.43;;;13.33;;
14994;SDS011;7593;49.006;8.372;2022-12-07T03:31:33;18.47;;;13.83;;
14994;SDS011;7593;49.006;8.372;2022-12-07T03:34:06;17.07;;;13.87;;
14994;SDS011;7593;49.006;8.372;2022-12-07T03:36:40;15.70;;;13.50;;
14994;SDS011;7593;49.006;8.372;2022-12-07T03:39:15;15.80;;;13.47;;
14994;SDS011;7593;49.006;8.372;2022-12-07T03:41:47;19.67;;;13.17;;
14994;SDS011;7593;49.006;8.372;2022-12-07T03:44:14;17.93;;;13.67;;
14994;SDS011;7593;49.006;8.372;2022-12-07T03:46:44;16.13;;;13.77;;
14994;SDS011;7593;49.006;8.372;2022-12-07T03:49:16;20.30;;;14.53;;
14994;SDS011;7593;49.006;8.372;2022-12-07T03:51:49;16.77;;;13.50;;
14994;SDS011;7593;49.006;8.372;2022-12-07T03:54:23;19.67;;;14.50;;
14994;SDS011;7593;49.006;8.372;2022-12-07T03:56:55;19.20;;;14.67;;
14994;SDS011;7593;49.006;8.372;2022-12-07T03:59:23;21.97;;;14.90;;
14994;SDS011;7593;49.006;8.372;2022-12-07T04:01:53;18.23;;;14.87;;
14994;SDS011;7593;49.006;8.372;2022-12-07T04:04:21;18.77;;;15.17;;
14994;SDS011;7593;49.006;8.372;2022-12-07T04:06:48;21.47;;;15.27;;
14994;SDS011;7593;49.006;8.372;2022-12-07T04:09:15;19.83;;;14.53;;
14994;SDS011;7593;49.006;8.372;2022-12-07T04:11:41;17.97;;;13.87;;
14994;SDS011;7593;49.006;8.372;2022-12-07T04:14:08;17.57;;;14.13;;
14994;SDS011;7593;49.006;8.372;2022-12-07T04:16:44;19.17;;;15.23;;
14994;SDS011;7593;49.006;8.372;2022-12-07T04:19:12;18.90;;;14.50;;
14994;SDS011;7593;49.006;8.372;2022-12-07T04:21:39;19.00;;;14.30;;
14994;SDS011;7593;49.006;8.372;2022-12-07T04:24:07;18.23;;;14.23;;
14994;SDS011;7593;49.006;8.372;2022-12-07T04:26:33;18.23;;;13.83;;
14994;SDS011;7593;49.006;8.372;2022-12-07T04:29:00;17.77;;;13.90;;
14994;SDS011;7593;49.006;8.372;2022-12-07T04:31:27;16.83;;;13.37;;
14994;SDS011;7593;49.006;8.372;2022-12-07T04:33:54;18.10;;;13.50;;
14994;SDS011;7593;49.006;8.372;2022-12-07T04:36:22;19.40;;;14.07;;
14994;SDS011;7593;49.006;8.372;2022-12-07T04:38:49;17.47;;;14.13;;
14994;SDS011;7593;49.006;8.372;2022-12-07T04:41:16;17.53;;;13.57;;
14994;SDS011;7593;49.006;8.372;2022-12-07T04:43:42;18.37;;;14.23;;
14994;SDS011;7593;49.006;8.372;2022-12-07T04:46:09;16.63;;;14.00;;
14994;SDS011;7593;49.006;8.372;2022-12-07T04:48:36;17.47;;;14.03;;
14994;SDS011;7593;49.006;8.372;2022-12-07T04:51:03;17.10;;;13.97;;
14994;SDS011;7593;49.006;8.372;2022-12-07T04:53:31;17.87;;;13.57;;
14994;SDS011;7593;49.006;8.372;2022-12-07T04:55:58;17.17;;;13.33;;
14994;SDS011;7593;49.006;8.372;2022-12-07T04:58:26;17.87;;;14.23;;
14994;SDS011;7593;49.006;8.372;2022-12-07T05:00:53;17.30;;;13.57;;
14994;SDS011;7593;49.006;8.372;2022-12-07T05:03:20;16.80;;;13.97;;
14994;SDS011;7593;49.006;8.372;2022-12-07T05:05:47;16.20;;;12.77;;
14994;SDS011;7593;49.006;8.372;2022-12-07T05:08:14;17.77;;;13.50;;
14994;SDS011;7593;49.006;8.372;2022-12-07T05:10:42;17.43;;;13.37;;
14994;SDS011;7593;49.006;8.372;2022-12-07T05:13:08;16.33;;;13.57;;
14994;SDS011;7593;49.006;8.372;2022-12-07T05:15:35;15.40;;;13.37;;
14994;SDS011;7593;49.006;8.372;2022-12-07T05:18:02;17.20;;;13.73;;
14994;SDS011;7593;49.006;8.372;2022-12-07T05:20:29;16.60;;;13.20;;
14994;SDS011;7593;49.006;8.372;2022-12-07T05:22:56;18.67;;;14.73;;
14994;SDS011;7593;49.006;8.372;2022-12-07T05:25:24;17.40;;;14.00;;
14994;SDS011;7593;49.006;8.372;2022-12-07T05:27:52;17.73;;;14.03;;
14994;SDS011;7593;49.006;8.372;2022-12-07T05:30:20;16.47;;;13.13;;
14994;SDS011;7593;49.006;8.372;2022-12-07T05:32:47;16.90;;;13.90;;
14994;SDS011;7593;49.006;8.372;2022-12-07T05:35:14;16.73;;;12.87;;
14994;SDS011;7593;49.006;8.372;2022-12-07T05:37:43;14.20;;;12.70;;
14994;SDS011;7593;49.006;8.372;2022-12-07T05:40:11;14.57;;;12.63;;
14994;SDS011;7593;49.006;8.372;2022-12-07T05:42:45;15.70;;;12.43;;
14994;SDS011;7593;49.006;8.372;2022-12-07T05:45:16;16.63;;;12.33;;
14994;SDS011;7593;49.006;8.372;2022-12-07T05:47:47;16.00;;;13.20;;
14994;SDS011;7593;49.006;8.372;2022-12-07T05:50:14;16.77;;;12.90;;
14994;SDS011;7593;49.006;8.372;2022-12-07T05:52:41;17.37;;;13.10;;
14994;SDS011;7593;49.006;8.372;2022-12-07T05:55:11;16.90;;;12.90;;
14994;SDS011;7593;49.006;8.372;2022-12-07T05:57:38;17.03;;;13.13;;
14994;SDS011;7593;49.006;8.372;2022-12-07T06:00:26;16.53;;;12.77;;
14994;SDS011;7593;49.006;8.372;2022-12-07T06:02:52;15.07;;;12.53;;
14994;SDS011;7593;49.006;8.372;2022-12-07T06:05:24;16.23;;;13.23;;
14994;SDS011;7593;49.006;8.372;2022-12-07T06:07:54;15.20;;;13.07;;
14994;SDS011;7593;49.006;8.372;2022-12-07T06:10:21;15.10;;;12.47;;
14994;SDS011;7593;49.006;8.372;2022-12-07T06:12:48;14.53;;;12.43;;
14994;SDS011;7593;49.006;8.372;2022-12-07T06:15:14;17.07;;;13.50;;
14994;SDS011;7593;49.006;8.372;2022-12-07T06:17:42;15.33;;;12.33;;
14994;SDS011;7593;49.006;8.372;2022-12-07T06:20:09;15.53;;;12.53;;
14994;SDS011;7593;49.006;8.372;2022-12-07T06:22:35;18.03;;;13.53;;
14994;SDS011;7593;49.006;8.372;2022-12-07T06:25:02;15.43;;;12.50;;
14994;SDS011;7593;49.006;8.372;2022-12-07T06:27:29;17.33;;;12.87;;
14994;SDS011;7593;49.006;8.372;2022-12-07T06:29:57;15.80;;;12.17;;
14994;SDS011;7593;49.006;8.372;2022-12-07T06:32:24;17.70;;;13.23;;
14994;SDS011;7593;49.006;8.372;2022-12-07T06:34:52;16.83;;;12.87;;
14994;SDS011;7593;49.006;8.372;2022-12-07T06:37:19;15.53;;;12.50;;
14994;SDS011;7593;49.006;8.372;2022-12-07T06:39:46;20.23;;;13.80;;
14994;SDS011;7593;49.006;8.372;2022-12-07T06:42:13;17.47;;;12.87;;
14994;SDS011;7593;49.006;8.372;2022-12-07T06:44:40;17.97;;;13.37;;
14994;SDS011;7593;49.006;8.372;2022-12-07T06:47:06;14.80;;;12.47;;
14994;SDS011;7593;49.006;8.372;2022-12-07T06:49:34;16.10;;;12.53;;
14994;SDS011;7593;49.006;8.372;2022-12-07T06:52:02;16.60;;;13.13;;
14994;SDS011;7593;49.006;8.372;2022-12-07T06:54:30;14.00;;;11.83;;
14994;SDS011;7593;49.006;8.372;2022-12-07T06:56:57;16.53;;;12.23;;
14994;SDS011;7593;49.006;8.372;2022-12-07T06:59:24;15.27;;;12.23;;
14994;SDS011;7593;49.006;8.372;2022-12-07T07:01:51;14.57;;;11.70;;
14994;SDS011;7593;49.006;8.372;2022-12-07T07:04:17;14.97;;;11.60;;
14994;SDS011;7593;49.006;8.372;2022-12-07T07:06:44;15.90;;;11.40;;
14994;SDS011;7593;49.006;8.372;2022-12-07T07:09:13;15.67;;;11.93;;
14994;SDS011;7593;49.006;8.372;2022-12-07T07:11:40;15.23;;;12.27;;
14994;SDS011;7593;49.006;8.372;2022-12-07T07:14:06;16.13;;;12.57;;
14994;SDS011;7593;49.006;8.372;2022-12-07T07:16:33;14.37;;;12.00;;
14994;SDS011;7593;49.006;8.372;2022-12-07T07:19:00;15.47;;;12.17;;
14994;SDS011;7593;49.006;8.372;2022-12-07T07:21:27;14.60;;;11.80;;
14994;SDS011;7593;49.006;8.372;2022-12-07T07:23:54;14.23;;;11.80;;
14994;SDS011;7593;49.006;8.372;2022-12-07T07:26:22;16.47;;;12.13;;
14994;SDS011;7593;49.006;8.372;2022-12-07T07:28:49;15.00;;;11.93;;
14994;SDS011;7593;49.006;8.372;2022-12-07T07:31:16;15.27;;;12.53;;
14994;SDS011;7593;49.006;8.372;2022-12-07T07:33:44;15.10;;;11.87;;
14994;SDS011;7593;49.006;8.372;2022-12-07T07:36:11;14.43;;;11.93;;
14994;SDS011;7593;49.006;8.372;2022-12-07T07:38:38;14.20;;;11.57;;
14994;SDS011;7593;49.006;8.372;2022-12-07T07:41:07;21.20;;;11.47;;
14994;SDS011;7593;49.006;8.372;2022-12-07T07:43:35;13.67;;;11.87;;
14994;SDS011;7593;49.006;8.372;2022-12-07T07:46:03;13.70;;;11.03;;
14994;SDS011;7593;49.006;8.372;2022-12-07T07:48:29;13.60;;;11.33;;
14994;SDS011;7593;49.006;8.372;2022-12-07T07:50:56;14.17;;;11.40;;
14994;SDS011;7593;49.006;8.372;2022-12-07T07:53:23;14.13;;;11.73;;
14994;SDS011;7593;49.006;8.372;2022-12-07T07:55:50;15.20;;;11.13;;
14994;SDS011;7593;49.006;8.372;2022-12-07T07:58:18;18.53;;;12.23;;
14994;SDS011;7593;49.006;8.372;2022-12-07T08:00:46;16.93;;;11.20;;
14994;SDS011;7593;49.006;8.372;2022-12-07T08:03:13;13.17;;;11.27;;
14994;SDS011;7593;49.006;8.372;2022-12-07T08:05:40;15.33;;;10.93;;
14994;SDS011;7593;49.006;8.372;2022-12-07T08:08:07;13.47;;;11.37;;
14994;SDS011;7593;49.006;8.372;2022-12-07T08:10:34;13.57;;;11.07;;
14994;SDS011;7593;49.006;8.372;2022-12-07T08:13:02;13.87;;;11.00;;
14994;SDS011;7593;49.006;8.372;2022-12-07T08:15:39;15.30;;;10.67;;
14994;SDS011;7593;49.006;8.372;2022-12-07T08:18:08;12.77;;;10.47;;
14994;SDS011;7593;49.006;8.372;2022-12-07T08:20:35;12.03;;;9.70;;
14994;SDS011;7593;49.006;8.372;2022-12-07T08:23:03;12.57;;;10.03;;
14994;SDS011;7593;49.006;8.372;2022-12-07T08:25:32;12.87;;;9.53;;
14994;SDS011;7593;49.006;8.372;2022-12-07T08:27:59;11.10;;;9.07;;
14994;SDS011;7593;49.006;8.372;2022-12-07T08:30:26;11.20;;;9.13;;
14994;SDS011;7593;49.006;8.372;2022-12-07T08:32:54;11.23;;;9.03;;
14994;SDS011;7593;49.006;8.372;2022-12-07T08:35:23;13.47;;;9.83;;
14994;SDS011;7593;49.006;8.372;2022-12-07T08:37:51;13.43;;;9.23;;
14994;SDS011;7593;49.006;8.372;2022-12-07T08:40:18;13.20;;;10.07;;
14994;SDS011;7593;49.006;8.372;2022-12-07T08:42:48;12.03;;;10.07;;
14994;SDS011;7593;49.006;8.372;2022-12-07T08:45:16;10.90;;;9.07;;
14994;SDS011;7593;49.006;8.372;2022-12-07T08:47:45;13.27;;;10.03;;
14994;SDS011;7593;49.006;8.372;2022-12-07T08:50:15;11.77;;;10.00;;
14994;SDS011;7593;49.006;8.372;2022-12-07T08:52:44;11.83;;;9.70;;
14994;SDS011;7593;49.006;8.372;2022-12-07T08:55:16;11.53;;;9.13;;
14994;SDS011;7593;49.006;8.372;2022-12-07T08:57:43;12.63;;;9.43;;
14994;SDS011;7593;49.006;8.372;2022-12-07T09:00:10;14.53;;;10.73;;
14994;SDS011;7593;49.006;8.372;2022-12-07T09:02:38;13.37;;;10.30;;
14994;SDS011;7593;49.006;8.372;2022-12-07T09:05:05;13.30;;;9.60;;
14994;SDS011;7593;49.006;8.372;2022-12-07T09:07:32;13.30;;;10.47;;
14994;SDS011;7593;49.006;8.372;2022-12-07T09:10:01;13.43;;;10.43;;
14994;SDS011;7593;49.006;8.372;2022-12-07T09:12:29;12.07;;;9.03;;
14994;SDS011;7593;49.006;8.372;2022-12-07T09:14:55;11.63;;;9.57;;
14994;SDS011;7593;49.006;8.372;2022-12-07T09:17:22;14.20;;;10.40;;
14994;SDS011;7593;49.006;8.372;2022-12-07T09:19:49;10.70;;;8.17;;
14994;SDS011;7593;49.006;8.372;2022-12-07T09:22:16;14.23;;;9.90;;
14994;SDS011;7593;49.006;8.372;2022-12-07T09:24:43;10.57;;;8.77;;
14994;SDS011;7593;49.006;8.372;2022-12-07T09:27:11;11.37;;;9.07;;
14994;SDS011;7593;49.006;8.372;2022-12-07T09:29:38;12.63;;;9.53;;
14994;SDS011;7593;49.006;8.372;2022-12-07T09:32:05;14.10;;;11.03;;
14994;SDS011;7593;49.006;8.372;2022-12-07T09:34:32;11.47;;;9.77;;
14994;SDS011;7593;49.006;8.372;2022-12-07T09:37:00;12.13;;;8.90;;
14994;SDS011;7593;49.006;8.372;2022-12-07T09:39:28;11.60;;;9.30;;
14994;SDS011;7593;49.006;8.372;2022-12-07T09:41:56;10.27;;;8.97;;
14994;SDS011;7593;49.006;8.372;2022-12-07T09:44:26;11.40;;;8.53;;
14994;SDS011;7593;49.006;8.372;2022-12-07T09:46:54;10.73;;;9.13;;
14994;SDS011;7593;49.006;8.372;2022-12-07T09:49:22;15.33;;;10.73;;
14994;SDS011;7593;49.006;8.372;2022-12-07T09:51:59;10.83;;;8.93;;
14994;SDS011;7593;49.006;8.372;2022-12-07T09:54:28;12.17;;;9.30;;
14994;SDS011;7593;49.006;8.372;2022-12-07T09:56:55;14.03;;;10.20;;
14994;SDS011;7593;49.006;8.372;2022-12-07T09:59:22;12.47;;;9.13;;
14994;SDS011;7593;49.006;8.372;2022-12-07T10:01:51;14.57;;;12.50;;
14994;SDS011;7593;49.006;8.372;2022-12-07T10:04:18;14.60;;;10.50;;
14994;SDS011;7593;49.006;8.372;2022-12-07T10:06:47;10.77;;;9.13;;
14994;SDS011;7593;49.006;8.372;2022-12-07T10:09:16;11.63;;;10.20;;
14994;SDS011;7593;49.006;8.372;2022-12-07T10:12:00;9.67;;;8.47;;
14994;SDS011;7593;49.006;8.372;2022-12-07T10:14:30;10.17;;;8.17;;
14994;SDS011;7593;49.006;8.372;2022-12-07T10:16:59;11.83;;;9.27;;
14994;SDS011;7593;49.006;8.372;2022-12-07T10:19:27;10.93;;;8.87;;
14994;SDS011;7593;49.006;8.372;2022-12-07T10:22:03;10.33;;;8.73;;
14994;SDS011;7593;49.006;8.372;2022-12-07T10:24:38;12.13;;;8.63;;
14994;SDS011;7593;49.006;8.372;2022-12-07T10:27:11;9.50;;;7.70;;
14994;SDS011;7593;49.006;8.372;2022-12-07T10:29:46;9.60;;;8.57;;
14994;SDS011;7593;49.006;8.372;2022-12-07T10:32:27;11.73;;;8.07;;
14994;SDS011;7593;49.006;8.372;2022-12-07T10:35:15;10.87;;;8.90;;
14994;SDS011;7593;49.006;8.372;2022-12-07T10:37:46;11.40;;;8.73;;
14994;SDS011;7593;49.006;8.372;2022-12-07T10:43:05;10.03;;;8.73;;
14994;SDS011;7593;49.006;8.372;2022-12-07T10:45:43;10.20;;;8.47;;
14994;SDS011;7593;49.006;8.372;2022-12-07T10:48:43;9.57;;;8.40;;
14994;SDS011;7593;49.006;8.372;2022-12-07T10:51:19;10.57;;;8.73;;
14994;SDS011;7593;49.006;8.372;2022-12-07T10:53:57;9.83;;;8.63;;
14994;SDS011;7593;49.006;8.372;2022-12-07T10:56:36;10.67;;;9.33;;
14994;SDS011;7593;49.006;8.372;2022-12-07T10:59:35;12.47;;;8.90;;
14994;SDS011;7593;49.006;8.372;2022-12-07T11:02:17;13.30;;;8.63;;
14994;SDS011;7593;49.006;8.372;2022-12-07T11:04:58;11.20;;;8.77;;
14994;SDS011;7593;49.006;8.372;2022-12-07T11:07:36;11.73;;;8.73;;
14994;SDS011;7593;49.006;8.372;2022-12-07T11:10:11;10.80;;;8.90;;
14994;SDS011;7593;49.006;8.372;2022-12-07T11:12:47;11.40;;;8.93;;
14994;SDS011;7593;49.006;8.372;2022-12-07T11:15:21;11.30;;;9.00;;
14994;SDS011;7593;49.006;8.372;2022-12-07T11:17:53;11.60;;;9.33;;
14994;SDS011;7593;49.006;8.372;2022-12-07T11:20:37;10.63;;;9.17;;
14994;SDS011;7593;49.006;8.372;2022-12-07T11:23:18;10.70;;;9.23;;
14994;SDS011;7593;49.006;8.372;2022-12-07T11:25:53;14.03;;;10.30;;
14994;SDS011;7593;49.006;8.372;2022-12-07T11:28:31;10.57;;;9.13;;
14994;SDS011;7593;49.006;8.372;2022-12-07T11:31:10;12.33;;;9.20;;
14994;SDS011;7593;49.006;8.372;2022-12-07T11:33:45;11.33;;;9.73;;
14994;SDS011;7593;49.006;8.372;2022-12-07T11:36:23;12.93;;;9.87;;
14994;SDS011;7593;49.006;8.372;2022-12-07T11:39:00;14.20;;;10.03;;
14994;SDS011;7593;49.006;8.372;2022-12-07T11:41:29;13.10;;;9.80;;
14994;SDS011;7593;49.006;8.372;2022-12-07T11:44:02;14.90;;;10.40;;
14994;SDS011;7593;49.006;8.372;2022-12-07T11:46:37;11.23;;;9.57;;
14994;SDS011;7593;49.006;8.372;2022-12-07T11:49:12;12.93;;;10.67;;
14994;SDS011;7593;49.006;8.372;2022-12-07T11:51:46;13.00;;;9.93;;
14994;SDS011;7593;49.006;8.372;2022-12-07T11:54:18;12.20;;;9.77;;
14994;SDS011;7593;49.006;8.372;2022-12-07T11:56:48;10.93;;;9.23;;
14994;SDS011;7593;49.006;8.372;2022-12-07T11:59:17;12.43;;;10.10;;
14994;SDS011;7593;49.006;8.372;2022-12-07T12:01:51;12.50;;;9.90;;
14994;SDS011;7593;49.006;8.372;2022-12-07T12:04:26;13.63;;;9.70;;
14994;SDS011;7593;49.006;8.372;2022-12-07T12:07:00;11.60;;;9.97;;
14994;SDS011;7593;49.006;8.372;2022-12-07T12:09:28;12.00;;;9.97;;
14994;SDS011;7593;49.006;8.372;2022-12-07T12:12:02;11.37;;;10.17;;
14994;SDS011;7593;49.006;8.372;2022-12-07T12:14:58;13.70;;;10.53;;
14994;SDS011;7593;49.006;8.372;2022-12-07T12:17:50;13.30;;;9.93;;
14994;SDS011;7593;49.006;8.372;2022-12-07T12:20:35;12.50;;;10.13;;
14994;SDS011;7593;49.006;8.372;2022-12-07T12:23:09;11.13;;;8.87;;
14994;SDS011;7593;49.006;8.372;2022-12-07T12:25:41;11.13;;;9.00;;
14994;SDS011;7593;49.006;8.372;2022-12-07T12:28:19;11.57;;;9.37;;
14994;SDS011;7593;49.006;8.372;2022-12-07T12:31:04;15.43;;;10.27;;
14994;SDS011;7593;49.006;8.372;2022-12-07T12:33:33;12.00;;;9.67;;
14994;SDS011;7593;49.006;8.372;2022-12-07T12:41:53;12.57;;;10.37;;
14994;SDS011;7593;49.006;8.372;2022-12-07T12:47:52;11.57;;;9.37;;
14994;SDS011;7593;49.006;8.372;2022-12-07T12:50:21;13.17;;;9.67;;
14994;SDS011;7593;49.006;8.372;2022-12-07T12:55:53;10.93;;;9.50;;
14994;SDS011;7593;49.006;8.372;2022-12-07T12:58:40;12.80;;;10.03;;
14994;SDS011;7593;49.006;8.372;2022-12-07T13:04:16;12.60;;;9.93;;
14994;SDS011;7593;49.006;8.372;2022-12-07T13:06:47;13.17;;;9.60;;
14994;SDS011;7593;49.006;8.372;2022-12-07T13:09:19;13.40;;;10.20;;
14994;SDS011;7593;49.006;8.372;2022-12-07T13:11:50;13.33;;;10.07;;
14994;SDS011;7593;49.006;8.372;2022-12-07T13:14:40;12.67;;;9.63;;
14994;SDS011;7593;49.006;8.372;2022-12-07T13:17:09;12.47;;;9.80;;
14994;SDS011;7593;49.006;8.372;2022-12-07T13:22:37;12.17;;;9.67;;
14994;SDS011;7593;49.006;8.372;2022-12-07T13:25:11;11.90;;;9.53;;
14994;SDS011;7593;49.006;8.372;2022-12-07T13:27:41;11.60;;;9.50;;
14994;SDS011;7593;49.006;8.372;2022-12-07T13:30:14;11.53;;;9.50;;
14994;SDS011;7593;49.006;8.372;2022-12-07T13:32:42;11.53;;;9.80;;
14994;SDS011;7593;49.006;8.372;2022-12-07T13:35:31;12.27;;;9.40;;
14994;SDS011;7593;49.006;8.372;2022-12-07T13:38:01;13.20;;;9.63;;
14994;SDS011;7593;49.006;8.372;2022-12-07T13:40:30;12.07;;;10.13;;
14994;SDS011;7593;49.006;8.372;2022-12-07T13:42:59;11.17;;;9.70;;
14994;SDS011;7593;49.006;8.372;2022-12-07T13:45:28;14.43;;;10.60;;
14994;SDS011;7593;49.006;8.372;2022-12-07T13:48:14;14.37;;;10.33;;
14994;SDS011;7593;49.006;8.372;2022-12-07T13:50:52;11.90;;;9.67;;
14994;SDS011;7593;49.006;8.372;2022-12-07T13:53:20;13.57;;;10.27;;
14994;SDS011;7593;49.006;8.372;2022-12-07T13:55:47;17.00;;;12.47;;
14994;SDS011;7593;49.006;8.372;2022-12-07T13:58:15;11.90;;;10.30;;
14994;SDS011;7593;49.006;8.372;2022-12-07T14:00:42;12.17;;;10.40;;
14994;SDS011;7593;49.006;8.372;2022-12-07T14:03:25;13.40;;;8.90;;
14994;SDS011;7593;49.006;8.372;2022-12-07T14:09:05;12.97;;;9.50;;
14994;SDS011;7593;49.006;8.372;2022-12-07T14:11:33;9.93;;;8.63;;
14994;SDS011;7593;49.006;8.372;2022-12-07T14:14:02;11.17;;;8.87;;
14994;SDS011;7593;49.006;8.372;2022-12-07T14:16:31;9.93;;;8.00;;
14994;SDS011;7593;49.006;8.372;2022-12-07T14:19:00;9.97;;;8.20;;
14994;SDS011;7593;49.006;8.372;2022-12-07T14:21:29;11.70;;;8.30;;
14994;SDS011;7593;49.006;8.372;2022-12-07T14:24:07;10.07;;;8.10;;
14994;SDS011;7593;49.006;8.372;2022-12-07T14:26:36;10.20;;;7.87;;
14994;SDS011;7593;49.006;8.372;2022-12-07T14:29:20;9.70;;;8.30;;
14994;SDS011;7593;49.006;8.372;2022-12-07T14:31:49;9.27;;;7.67;;
14994;SDS011;7593;49.006;8.372;2022-12-07T14:34:19;10.07;;;8.20;;
14994;SDS011;7593;49.006;8.372;2022-12-07T14:36:46;10.87;;;8.13;;
14994;SDS011;7593;49.006;8.372;2022-12-07T14:39:13;8.00;;;7.20;;
14994;SDS011;7593;49.006;8.372;2022-12-07T14:41:39;9.77;;;7.90;;
14994;SDS011;7593;49.006;8.372;2022-12-07T14:44:19;21.70;;;15.93;;
14994;SDS011;7593;49.006;8.372;2022-12-07T14:46:48;11.00;;;8.60;;
14994;SDS011;7593;49.006;8.372;2022-12-07T14:49:15;11.47;;;7.97;;
14994;SDS011;7593;49.006;8.372;2022-12-07T14:51:43;12.17;;;9.13;;
14994;SDS011;7593;49.006;8.372;2022-12-07T14:54:13;14.80;;;11.77;;
14994;SDS011;7593;49.006;8.372;2022-12-07T14:56:43;9.27;;;7.57;;
14994;SDS011;7593;49.006;8.372;2022-12-07T14:59:10;10.77;;;8.40;;
14994;SDS011;7593;49.006;8.372;2022-12-07T15:01:39;10.73;;;8.63;;
14994;SDS011;7593;49.006;8.372;2022-12-07T15:04:05;15.30;;;11.90;;
14994;SDS011;7593;49.006;8.372;2022-12-07T15:06:32;12.80;;;10.70;;
14994;SDS011;7593;49.006;8.372;2022-12-07T15:08:59;11.40;;;8.77;;
14994;SDS011;7593;49.006;8.372;2022-12-07T15:11:26;11.90;;;9.20;;
14994;SDS011;7593;49.006;8.372;2022-12-07T15:13:53;10.50;;;9.07;;
14994;SDS011;7593;49.006;8.372;2022-12-07T15:16:39;13.93;;;11.10;;
14994;SDS011;7593;49.006;8.372;2022-12-07T15:19:09;12.97;;;9.10;;
14994;SDS011;7593;49.006;8.372;2022-12-07T15:21:39;14.60;;;12.07;;
14994;SDS011;7593;49.006;8.372;2022-12-07T15:24:07;13.00;;;10.93;;